ADDS METAR Data INFO
IDs: Format: Raw Decoded Include TAF

Data at: 1119 UTC 21 Feb 2018

PABT 201453Z 00000KT 4SM -SN BR BKN060 OVC075 M07/M09 A3015 RMK AO2 SLP227 60003 931003 T10721094 53005
PABT 201407Z 00000KT 3SM -SN BR OVC033 M07/M09 A3014 RMK AO2 T10721094
PABT 201353Z 00000KT 1 1/4SM -SN BR OVC025 M07/M09 A3014 RMK AO2 SLP225 T10721094
PABT 201327Z 00000KT 1SM -SN BR OVC022 M07/M09 A3014 RMK AO2 T10721089
PABT 201253Z 00000KT 2SM -SN BR OVC028 M07/M09 A3014 RMK AO2 SLP223 T10721094
PABT 201203Z 32003KT 5SM -SN BR SCT026 OVC047 M08/M10 A3014 RMK AO2 T10781100
PABT 201153Z 33004KT 4SM -SN BR BKN026 BKN039 OVC049 M07/M09 A3013 RMK AO2 SNB43 SLP222 60000 931000 4/036 T10721094 11072 21089 56008
PABT 201115Z 33005KT 10SM BKN026 OVC065 M07/M10 A3013 RMK AO2 T10721100
PABT 201053Z 34004KT 10SM SCT028 BKN070 OVC100 M07/M10 A3013 RMK AO2 SLP222 T10721100
PABT 200953Z 34005KT 10SM SCT033 BKN085 OVC100 M07/M10 A3014 RMK AO2 SLP226 T10721100
PABT 200853Z 34004KT 10SM BKN070 OVC090 M07/M10 A3016 RMK AO2 SLP230 T10721100 410721167 56016
PABT 200753Z 34004KT 10SM BKN070 OVC080 M08/M10 A3017 RMK AO2 SLP236 T10781100
PABT 200653Z 34004KT 10SM BKN070 OVC095 M08/M10 A3019 RMK AO2 SLP241 T10781100
PABT 200553Z 34006KT 10SM SCT013 SCT075 BKN095 M08/M11 A3021 RMK AO2 SLP248 4/036 T10781106 11072 21089 56010
PABT 200453Z 35004KT 10SM FEW009 SCT013 OVC090 M09/M11 A3021 RMK AO2 SLP250 T10891111
PABT 200353Z 32004KT 10SM FEW008 SCT013 OVC090 M08/M11 A3022 RMK AO2 SLP253 T10831106
PABT 200253Z 34005KT 10SM FEW008 SCT013 OVC100 M07/M09 A3024 RMK AO2 SLP259 T10721094 58016
PABT 200153Z 34004KT 9SM FEW008 SCT013 OVC100 M08/M10 A3026 RMK AO2 SLP267 T10781100
PABT 200053Z 33005KT 10SM FEW008 SCT013 OVC100 M08/M10 A3028 RMK AO2 SLP274 T10781100
PABT 192353Z 35004KT 10SM FEW006 SCT014 OVC100 M07/M09 A3029 RMK AO2 SLP277 4/036 T10721094 11072 21106 58009
PABT 192330Z 36005KT 10SM SCT006 SCT028 OVC090 M07/M09 A3029 RMK AO2 T10721094